createdAt,value
2019-05-14T00:00:52.274Z,0.00
2019-05-14T00:01:51.429Z,0.00
2019-05-14T00:02:52.080Z,0.00
2019-05-14T00:03:51.627Z,0.00
2019-05-14T00:04:51.174Z,0.00
2019-05-14T00:05:51.762Z,0.00
2019-05-14T00:06:51.946Z,0.00
2019-05-14T00:07:52.126Z,0.00
2019-05-14T00:08:52.199Z,0.00
2019-05-14T00:09:51.912Z,0.00
2019-05-14T00:10:52.053Z,0.00
2019-05-14T00:11:51.265Z,0.00
2019-05-14T00:12:51.286Z,0.00
2019-05-14T00:13:52.073Z,0.00
2019-05-14T00:14:51.623Z,0.00
2019-05-14T00:15:52.258Z,0.00
2019-05-14T00:16:51.308Z,0.00
2019-05-14T00:17:52.269Z,0.00
2019-05-14T00:18:51.186Z,0.00
2019-05-14T00:20:05.856Z,0.00
2019-05-14T00:20:51.352Z,0.00
2019-05-14T00:21:51.452Z,0.00
2019-05-14T00:22:52.153Z,0.00
2019-05-14T00:23:51.372Z,0.00
2019-05-14T00:24:51.981Z,0.00
2019-05-14T00:25:52.067Z,0.00
2019-05-14T00:26:51.707Z,0.00
2019-05-14T00:27:51.937Z,0.00
2019-05-14T00:28:51.223Z,0.00
2019-05-14T00:29:51.804Z,0.00
2019-05-14T00:30:52.324Z,0.00
2019-05-14T00:31:51.693Z,0.00
2019-05-14T00:32:52.017Z,0.00
2019-05-14T00:33:51.264Z,0.00
2019-05-14T00:34:51.563Z,0.00
2019-05-14T00:35:51.480Z,0.00
2019-05-14T00:36:52.273Z,0.00
2019-05-14T00:37:52.081Z,0.00
2019-05-14T00:38:51.292Z,0.00
2019-05-14T00:39:52.056Z,0.00
2019-05-14T00:40:51.327Z,0.00
2019-05-14T00:41:51.286Z,0.00
2019-05-14T00:42:50.101Z,0.00
2019-05-14T00:43:51.386Z,0.00
2019-05-14T00:44:55.313Z,0.00
2019-05-14T00:45:51.228Z,0.00
2019-05-14T00:46:51.597Z,0.00
2019-05-14T00:47:52.350Z,0.00
2019-05-14T00:48:51.452Z,0.00
2019-05-14T00:49:51.665Z,0.00
2019-05-14T00:50:51.609Z,0.00
2019-05-14T00:51:51.914Z,0.00
2019-05-14T00:52:51.633Z,0.00
2019-05-14T00:53:51.577Z,0.00
2019-05-14T00:54:51.990Z,0.00
2019-05-14T00:55:51.631Z,0.00
2019-05-14T00:56:51.979Z,0.00
2019-05-14T00:57:51.995Z,0.00
2019-05-14T00:58:51.929Z,0.00
2019-05-14T00:59:52.053Z,0.00
2019-05-14T01:00:52.280Z,0.00
2019-05-14T01:01:51.677Z,0.00
2019-05-14T01:02:51.722Z,0.00
2019-05-14T01:03:51.895Z,0.00
2019-05-14T01:04:51.557Z,0.00
2019-05-14T01:05:51.952Z,0.00
2019-05-14T01:06:51.153Z,0.00
2019-05-14T01:07:51.403Z,0.00
2019-05-14T01:08:51.692Z,0.00
2019-05-14T01:09:52.106Z,0.00
2019-05-14T01:10:51.243Z,0.00
2019-05-14T01:11:51.320Z,0.00
2019-05-14T01:12:51.891Z,0.00
2019-05-14T01:13:52.023Z,0.00
2019-05-14T01:14:52.870Z,0.00
2019-05-14T01:15:52.191Z,0.00
2019-05-14T01:16:51.359Z,0.00
2019-05-14T01:17:51.595Z,0.00
2019-05-14T01:18:51.342Z,0.00
2019-05-14T01:19:51.340Z,0.00
2019-05-14T01:20:51.710Z,0.00
2019-05-14T01:21:51.060Z,0.00
2019-05-14T01:22:51.591Z,0.00
2019-05-14T01:23:51.340Z,0.00
2019-05-14T01:24:52.034Z,0.00
2019-05-14T01:25:51.694Z,0.00
2019-05-14T01:26:52.082Z,0.00
2019-05-14T01:27:51.642Z,0.00
2019-05-14T01:28:51.320Z,0.00
2019-05-14T01:29:51.428Z,0.00
2019-05-14T01:30:51.622Z,0.00
2019-05-14T01:31:51.859Z,0.00
2019-05-14T01:32:51.200Z,0.00
2019-05-14T01:33:51.381Z,0.00
2019-05-14T01:34:51.959Z,0.00
2019-05-14T01:35:51.414Z,0.00
2019-05-14T01:36:49.516Z,0.00
2019-05-14T01:37:51.992Z,0.00
2019-05-14T01:38:51.308Z,0.00
2019-05-14T01:39:51.764Z,0.00
2019-05-14T01:40:49.492Z,0.00
2019-05-14T01:41:51.522Z,0.00
2019-05-14T01:42:52.037Z,0.00
2019-05-14T01:43:51.273Z,0.00
2019-05-14T01:44:51.694Z,0.00
2019-05-14T01:45:49.417Z,0.00
2019-05-14T01:46:51.217Z,0.00
2019-05-14T01:47:51.917Z,0.00
2019-05-14T01:48:49.430Z,0.00
2019-05-14T01:49:51.326Z,0.00
2019-05-14T01:50:51.816Z,0.00
2019-05-14T01:51:51.162Z,0.00
2019-05-14T01:52:51.847Z,0.00
2019-05-14T01:53:49.341Z,0.00
2019-05-14T01:54:51.334Z,0.00
2019-05-14T01:55:49.328Z,0.00
2019-05-14T01:56:51.331Z,0.00
2019-05-14T01:57:51.577Z,0.00
2019-05-14T01:58:49.304Z,0.00
2019-05-14T01:59:51.469Z,0.00
2019-05-14T02:00:49.260Z,0.00
2019-05-14T02:01:51.532Z,0.00
2019-05-14T02:02:49.263Z,0.00
2019-05-14T02:03:51.618Z,0.00
2019-05-14T02:04:51.282Z,0.00
2019-05-14T02:05:49.207Z,0.00
2019-05-14T02:06:51.364Z,0.00
2019-05-14T02:07:49.210Z,0.00
2019-05-14T02:08:51.290Z,0.00
2019-05-14T02:09:49.161Z,0.00
2019-05-14T02:10:49.159Z,0.00
2019-05-14T02:11:49.140Z,0.00
2019-05-14T02:12:51.357Z,0.00
2019-05-14T02:13:49.118Z,0.00
2019-05-14T02:14:51.110Z,0.00
2019-05-14T02:15:49.108Z,0.00
2019-05-14T02:16:51.066Z,0.00
2019-05-14T02:17:49.097Z,0.00
2019-05-14T02:18:49.213Z,0.00
2019-05-14T02:19:51.299Z,0.00
2019-05-14T02:20:49.058Z,0.00
2019-05-14T02:21:51.266Z,0.00
2019-05-14T02:22:49.087Z,0.00
2019-05-14T02:23:51.255Z,0.00
2019-05-14T02:24:49.005Z,0.00
2019-05-14T02:25:49.006Z,0.00
2019-05-14T02:26:51.262Z,0.00
2019-05-14T02:27:48.973Z,0.00
2019-05-14T02:28:51.218Z,0.00
2019-05-14T02:29:48.947Z,0.00
2019-05-14T02:30:57.484Z,0.00
2019-05-14T02:31:50.567Z,0.00
2019-05-14T02:32:49.845Z,0.00
2019-05-14T02:33:50.435Z,0.00
2019-05-14T02:34:49.923Z,0.00
2019-05-14T02:35:49.524Z,0.00
2019-05-14T02:36:49.722Z,0.00
2019-05-14T02:37:50.404Z,0.00
2019-05-14T02:38:49.538Z,0.00
2019-05-14T02:39:50.153Z,0.00
2019-05-14T02:40:49.638Z,0.00
2019-05-14T02:41:49.894Z,0.00
2019-05-14T02:42:49.698Z,0.00
2019-05-14T02:43:50.273Z,0.00
2019-05-14T02:44:49.554Z,0.00
2019-05-14T02:46:02.007Z,0.00
2019-05-14T02:46:50.590Z,0.00
2019-05-14T02:47:50.304Z,0.00
2019-05-14T02:48:49.261Z,0.00
2019-05-14T02:49:50.097Z,0.00
2019-05-14T02:50:49.645Z,0.00
2019-05-14T02:51:50.438Z,0.00
2019-05-14T02:52:49.647Z,0.00
2019-05-14T02:53:49.760Z,0.00
2019-05-14T02:54:49.620Z,0.00
2019-05-14T02:55:49.813Z,0.00
2019-05-14T02:56:49.529Z,0.00
2019-05-14T02:57:50.060Z,0.00
2019-05-14T02:58:49.912Z,0.00
2019-05-14T02:59:50.103Z,0.00
2019-05-14T03:00:49.290Z,4.00
2019-05-14T03:01:50.241Z,4.00
2019-05-14T03:02:49.375Z,0.00
2019-05-14T03:03:49.544Z,0.00
2019-05-14T03:04:49.865Z,4.00
2019-05-14T03:05:49.613Z,4.00
2019-05-14T03:06:49.856Z,4.00
2019-05-14T03:07:50.066Z,4.00
2019-05-14T03:08:49.347Z,4.00
2019-05-14T03:09:50.219Z,8.00
2019-05-14T03:10:50.322Z,8.00
2019-05-14T03:11:48.723Z,8.00
2019-05-14T03:12:50.115Z,8.00
2019-05-14T03:13:49.460Z,12.00
2019-05-14T03:14:49.897Z,12.00
2019-05-14T03:15:49.791Z,16.00
2019-05-14T03:16:49.486Z,16.00
2019-05-14T03:17:49.425Z,16.00
2019-05-14T03:18:50.226Z,20.00
2019-05-14T03:19:49.613Z,24.00
2019-05-14T03:20:50.300Z,28.00
2019-05-14T03:21:50.231Z,36.00
2019-05-14T03:23:01.697Z,40.00
2019-05-14T03:23:49.948Z,44.00
2019-05-14T03:24:50.191Z,52.00
2019-05-14T03:25:49.280Z,56.00
2019-05-14T03:26:49.941Z,64.00
2019-05-14T03:27:49.701Z,68.00
2019-05-14T03:28:49.579Z,80.00
2019-05-14T03:29:49.989Z,92.00
2019-05-14T03:30:52.623Z,100.00
2019-05-14T03:31:52.757Z,112.00
2019-05-14T03:32:52.920Z,124.00
2019-05-14T03:33:52.392Z,140.00
2019-05-14T03:34:53.174Z,152.00
2019-05-14T03:35:56.545Z,172.00
2019-05-14T03:36:52.631Z,188.00
2019-05-14T03:37:49.638Z,208.00
2019-05-14T03:38:50.206Z,224.00
2019-05-14T03:39:49.380Z,244.00
2019-05-14T03:40:49.427Z,268.00
2019-05-14T03:41:49.848Z,288.00
2019-05-14T03:42:49.003Z,312.00
2019-05-14T03:43:49.350Z,336.00
2019-05-14T03:44:49.002Z,364.00
2019-05-14T03:45:49.638Z,392.00
2019-05-14T03:46:54.833Z,420.00
2019-05-14T03:47:50.679Z,452.00
2019-05-14T03:48:49.266Z,484.00
2019-05-14T03:49:49.927Z,516.00
2019-05-14T03:50:49.557Z,552.00
2019-05-14T03:51:49.720Z,588.00
2019-05-14T03:52:49.800Z,636.00
2019-05-14T03:53:57.211Z,692.00
2019-05-14T03:54:49.917Z,748.00
2019-05-14T03:55:50.292Z,772.00
2019-05-14T03:56:49.674Z,796.00
2019-05-14T03:57:49.985Z,828.00
2019-05-14T03:58:49.531Z,860.00
2019-05-14T03:59:49.953Z,888.00
2019-05-14T04:00:50.196Z,912.00
2019-05-14T04:01:50.999Z,940.00
2019-05-14T04:02:49.061Z,972.00
2019-05-14T04:03:50.331Z,1000.00
2019-05-14T04:04:50.209Z,1032.00
2019-05-14T04:05:49.193Z,1076.00
2019-05-14T04:06:49.696Z,1116.00
2019-05-14T04:07:50.172Z,1172.00
2019-05-14T04:08:49.687Z,1252.00
2019-05-14T04:09:49.348Z,1384.00
2019-05-14T04:10:53.426Z,1380.00
2019-05-14T04:11:50.506Z,1352.00
2019-05-14T04:12:49.169Z,1364.00
2019-05-14T04:13:49.622Z,1396.00
2019-05-14T04:14:50.233Z,1436.00
2019-05-14T04:15:49.811Z,1468.00
2019-05-14T04:17:03.819Z,1504.00
2019-05-14T04:17:50.185Z,1548.00
2019-05-14T04:18:50.492Z,1588.00
2019-05-14T04:19:49.497Z,1620.00
2019-05-14T04:20:50.057Z,1664.00
2019-05-14T04:21:49.028Z,1704.00
2019-05-14T04:22:49.979Z,1752.00
2019-05-14T04:23:50.772Z,1800.00
2019-05-14T04:24:49.713Z,1844.00
2019-05-14T04:25:49.828Z,1896.00
2019-05-14T04:27:01.762Z,1956.00
2019-05-14T04:27:49.524Z,2016.00
2019-05-14T04:28:49.788Z,2080.00
2019-05-14T04:29:49.934Z,2160.00
2019-05-14T04:30:49.323Z,2236.00
2019-05-14T04:31:50.195Z,2316.00
2019-05-14T04:32:50.498Z,2396.00
2019-05-14T04:33:50.025Z,2476.00
2019-05-14T04:34:49.835Z,2552.00
2019-05-14T04:35:49.089Z,2628.00
2019-05-14T04:36:50.311Z,2712.00
2019-05-14T04:37:49.577Z,2820.00
2019-05-14T04:38:51.452Z,2928.00
2019-05-14T04:39:50.428Z,3020.00
2019-05-14T04:40:49.454Z,3116.00
2019-05-14T04:41:49.759Z,3236.00
2019-05-14T04:42:50.296Z,3332.00
2019-05-14T04:43:50.082Z,3456.00
2019-05-14T04:44:50.284Z,3520.00
2019-05-14T04:45:49.712Z,3632.00
2019-05-14T04:46:49.431Z,3772.00
2019-05-14T04:47:49.724Z,3856.00
2019-05-14T04:48:50.637Z,3916.00
2019-05-14T04:49:50.224Z,3964.00
2019-05-14T04:50:49.690Z,3984.00
2019-05-14T04:51:50.349Z,4056.00
2019-05-14T04:52:49.368Z,4136.00
2019-05-14T04:53:49.838Z,4176.00
2019-05-14T04:54:49.985Z,4204.00
2019-05-14T04:55:49.419Z,4264.00
2019-05-14T04:56:50.787Z,4328.00
2019-05-14T04:57:50.087Z,4408.00
2019-05-14T04:58:49.677Z,4520.00
2019-05-14T04:59:49.377Z,4616.00
2019-05-14T05:00:49.959Z,4732.00
2019-05-14T05:01:49.322Z,4816.00
2019-05-14T05:02:49.705Z,4892.00
2019-05-14T05:03:50.390Z,4888.00
2019-05-14T05:04:50.641Z,4856.00
2019-05-14T05:05:49.955Z,4800.00
2019-05-14T05:06:49.903Z,4788.00
2019-05-14T05:07:49.231Z,4784.00
2019-05-14T05:08:49.936Z,4836.00
2019-05-14T05:09:49.902Z,4948.00
2019-05-14T05:10:49.520Z,5100.00
2019-05-14T05:11:49.849Z,5212.00
2019-05-14T05:12:49.299Z,5328.00
2019-05-14T05:13:48.812Z,5212.00
2019-05-14T05:14:49.256Z,5180.00
2019-05-14T05:15:48.684Z,5736.00
2019-05-14T05:16:49.023Z,5860.00
2019-05-14T05:17:52.445Z,6004.00
2019-05-14T05:18:49.016Z,6204.00
2019-05-14T05:19:51.225Z,6300.00
2019-05-14T05:20:50.210Z,6312.00
2019-05-14T05:21:48.082Z,6328.00
2019-05-14T05:22:48.553Z,6320.00
2019-05-14T05:23:49.308Z,6316.00
2019-05-14T05:24:48.456Z,6300.00
2019-05-14T05:25:49.025Z,6192.00
2019-05-14T05:26:48.516Z,5984.00
2019-05-14T05:27:48.718Z,5816.00
2019-05-14T05:29:01.748Z,5760.00
2019-05-14T05:29:48.709Z,5716.00
2019-05-14T05:30:49.094Z,5804.00
2019-05-14T05:31:48.767Z,5972.00
2019-05-14T05:32:49.229Z,5888.00
2019-05-14T05:33:49.081Z,5900.00
2019-05-14T05:34:48.256Z,6196.00
2019-05-14T05:35:48.662Z,6360.00
2019-05-14T05:36:48.493Z,6136.00
2019-05-14T05:37:49.052Z,5748.00
2019-05-14T05:38:49.120Z,5512.00
2019-05-14T05:39:48.893Z,5320.00
2019-05-14T05:40:48.610Z,5196.00
2019-05-14T05:41:49.022Z,5100.00
2019-05-14T05:42:48.995Z,5008.00
2019-05-14T05:43:48.416Z,4924.00
2019-05-14T05:44:48.350Z,4916.00
2019-05-14T05:45:48.589Z,4888.00
2019-05-14T05:46:49.149Z,4900.00
2019-05-14T05:47:57.152Z,4968.00
2019-05-14T05:48:48.291Z,5016.00
2019-05-14T05:49:48.836Z,4988.00
2019-05-14T05:50:48.464Z,5092.00
2019-05-14T05:51:48.428Z,5160.00
2019-05-14T05:52:49.196Z,5172.00
2019-05-14T05:53:48.363Z,5328.00
2019-05-14T05:54:48.799Z,5308.00
2019-05-14T05:55:48.494Z,5340.00
2019-05-14T05:56:48.193Z,5360.00
2019-05-14T05:57:49.055Z,5384.00
2019-05-14T05:58:48.972Z,5504.00
2019-05-14T05:59:48.438Z,5452.00
2019-05-14T06:00:49.518Z,5456.00
2019-05-14T06:01:49.950Z,5228.00
2019-05-14T06:02:48.848Z,4800.00
2019-05-14T06:03:49.001Z,5164.00
2019-05-14T06:04:48.040Z,5684.00
2019-05-14T06:05:49.097Z,5496.00
2019-05-14T06:06:48.253Z,5820.00
2019-05-14T06:07:48.267Z,5836.00
2019-05-14T06:08:48.853Z,5624.00
2019-05-14T06:09:48.349Z,6380.00
2019-05-14T06:10:48.904Z,6656.00
2019-05-14T06:11:48.703Z,6544.00
2019-05-14T06:12:48.930Z,6864.00
2019-05-14T06:13:48.528Z,6980.00
2019-05-14T06:14:48.553Z,7124.00
2019-05-14T06:15:49.545Z,6392.00
2019-05-14T06:16:48.862Z,6076.00
2019-05-14T06:17:49.041Z,6728.00
2019-05-14T06:18:48.313Z,7968.00
2019-05-14T06:19:48.455Z,9412.00
2019-05-14T06:20:49.205Z,8472.00
2019-05-14T06:21:49.106Z,8352.00
2019-05-14T06:22:48.777Z,10536.00
2019-05-14T06:23:48.744Z,10892.00
2019-05-14T06:24:48.554Z,9944.00
2019-05-14T06:25:49.029Z,10536.00
2019-05-14T06:26:48.787Z,10184.00
2019-05-14T06:27:48.442Z,11140.00
2019-05-14T06:28:48.576Z,12048.00
2019-05-14T06:29:48.691Z,11088.00
2019-05-14T06:30:48.386Z,10204.00
2019-05-14T06:31:46.375Z,8708.00
2019-05-14T06:32:48.589Z,8076.00
2019-05-14T06:33:48.639Z,8440.00
2019-05-14T06:34:48.644Z,8876.00
2019-05-14T06:35:48.539Z,9796.00
2019-05-14T06:36:48.475Z,9936.00
2019-05-14T06:37:48.819Z,9620.00
2019-05-14T06:38:46.272Z,9292.00
2019-05-14T06:39:48.425Z,8944.00
2019-05-14T06:40:48.760Z,7968.00
2019-05-14T06:41:48.824Z,8308.00
2019-05-14T06:42:48.430Z,8672.00
2019-05-14T06:43:48.424Z,9376.00
2019-05-14T06:44:46.222Z,8816.00
2019-05-14T06:45:49.309Z,9420.00
2019-05-14T06:46:48.440Z,9804.00
2019-05-14T06:47:48.574Z,8752.00
2019-05-14T06:48:48.416Z,7988.00
2019-05-14T06:49:48.572Z,7980.00
2019-05-14T06:50:46.184Z,8032.00
2019-05-14T06:51:48.731Z,7792.00
2019-05-14T06:52:46.135Z,7896.00
2019-05-14T06:53:46.118Z,7868.00
2019-05-14T06:54:46.134Z,7996.00
2019-05-14T06:55:48.246Z,7932.00
2019-05-14T06:56:46.098Z,7508.00
2019-05-14T06:57:48.043Z,7216.00
2019-05-14T06:58:48.775Z,7352.00
2019-05-14T06:59:48.222Z,7340.00
2019-05-14T07:00:46.059Z,7460.00
2019-05-14T07:01:46.051Z,7400.00
2019-05-14T07:02:48.889Z,7348.00
2019-05-14T07:03:46.009Z,7300.00
2019-05-14T07:04:48.228Z,7748.00
2019-05-14T07:05:46.011Z,8128.00
2019-05-14T07:06:48.244Z,8340.00
2019-05-14T07:07:49.065Z,8784.00
2019-05-14T07:08:48.137Z,8708.00
2019-05-14T07:09:45.949Z,7508.00
2019-05-14T07:10:48.380Z,7684.00
2019-05-14T07:11:45.922Z,7764.00
2019-05-14T07:12:45.931Z,8956.00
2019-05-14T07:13:45.921Z,9040.00
2019-05-14T07:14:47.976Z,8832.00
2019-05-14T07:15:45.868Z,8580.00
2019-05-14T07:16:48.322Z,8060.00
2019-05-14T07:17:45.881Z,7824.00
2019-05-14T07:18:50.652Z,7788.00
2019-05-14T07:19:48.927Z,7848.00
2019-05-14T07:20:48.096Z,7764.00
2019-05-14T07:21:45.811Z,7568.00
2019-05-14T07:22:48.177Z,7100.00
2019-05-14T07:23:45.838Z,6900.00
2019-05-14T07:24:45.767Z,6820.00
2019-05-14T07:25:48.159Z,6968.00
2019-05-14T07:26:45.749Z,7032.00
2019-05-14T07:27:45.767Z,7168.00
2019-05-14T07:28:48.560Z,7328.00
2019-05-14T07:29:45.717Z,7464.00
2019-05-14T07:30:48.330Z,7784.00
2019-05-14T07:31:45.707Z,8008.00
2019-05-14T07:32:48.243Z,8328.00
2019-05-14T07:33:45.733Z,8600.00
2019-05-14T07:34:48.026Z,8920.00
2019-05-14T07:35:45.656Z,9244.00
2019-05-14T07:36:45.646Z,9592.00
2019-05-14T07:37:45.639Z,9812.00
2019-05-14T07:38:48.678Z,10172.00
2019-05-14T07:39:45.674Z,10544.00
2019-05-14T07:40:45.624Z,10748.00
2019-05-14T07:41:48.227Z,10308.00
2019-05-14T07:42:45.588Z,10572.00
2019-05-14T07:43:45.570Z,11124.00
2019-05-14T07:44:45.564Z,11360.00
2019-05-14T07:45:45.628Z,11268.00
2019-05-14T07:46:45.578Z,11020.00
2019-05-14T07:47:45.578Z,10940.00
2019-05-14T07:49:00.612Z,11168.00
2019-05-14T07:49:48.793Z,11328.00
2019-05-14T07:50:51.254Z,11192.00
2019-05-14T07:51:48.203Z,11124.00
2019-05-14T07:52:45.976Z,11020.00
2019-05-14T07:53:45.457Z,10572.00
2019-05-14T07:54:45.449Z,9992.00
2019-05-14T07:55:45.456Z,9568.00
2019-05-14T07:56:45.466Z,9208.00
2019-05-14T07:57:45.428Z,9000.00
2019-05-14T07:58:45.406Z,8752.00
2019-05-14T07:59:45.405Z,8468.00
2019-05-14T08:00:45.395Z,8296.00
2019-05-14T08:01:45.397Z,8404.00
2019-05-14T08:02:45.369Z,8412.00
2019-05-14T08:03:45.346Z,8572.00
2019-05-14T08:04:45.356Z,8664.00
2019-05-14T08:05:45.337Z,8720.00
2019-05-14T08:06:45.321Z,8644.00
2019-05-14T08:07:45.341Z,8472.00
2019-05-14T08:08:45.302Z,8236.00
2019-05-14T08:09:45.295Z,8392.00
2019-05-14T08:10:45.275Z,9172.00
2019-05-14T08:11:45.266Z,9800.00
2019-05-14T08:12:45.274Z,12328.00
2019-05-14T08:13:45.305Z,13584.00
2019-05-14T08:15:02.474Z,12420.00
2019-05-14T08:15:46.241Z,16800.00
2019-05-14T08:16:45.218Z,26784.00
2019-05-14T08:17:45.223Z,49824.00
2019-05-14T08:18:45.209Z,59744.00
2019-05-14T08:19:45.187Z,58912.00
2019-05-14T08:20:45.198Z,58016.00
2019-05-14T08:21:45.175Z,61152.00
2019-05-14T08:22:45.158Z,62976.00
2019-05-14T08:23:45.144Z,61920.00
2019-05-14T08:24:45.288Z,61728.00
2019-05-14T08:25:45.141Z,63136.00
2019-05-14T08:26:45.106Z,59904.00
2019-05-14T08:27:45.097Z,63968.00
2019-05-14T08:28:45.106Z,64032.00
2019-05-14T08:29:45.086Z,62880.00
2019-05-14T08:30:45.070Z,62848.00
2019-05-14T08:31:45.045Z,63904.00
2019-05-14T08:32:45.038Z,66592.00
2019-05-14T08:33:45.121Z,68384.00
2019-05-14T08:34:45.020Z,68160.00
2019-05-14T08:35:44.996Z,53952.00
2019-05-14T08:36:45.009Z,58752.00
2019-05-14T08:37:45.011Z,58048.00
2019-05-14T08:38:45.555Z,62368.00
2019-05-14T08:39:44.988Z,61920.00
2019-05-14T08:40:44.946Z,48512.00
2019-05-14T08:41:56.054Z,55840.00
2019-05-14T08:42:45.926Z,43968.00
2019-05-14T08:43:44.914Z,65152.00
2019-05-14T08:44:47.930Z,53056.00
2019-05-14T08:45:48.473Z,65920.00
2019-05-14T08:46:45.370Z,71392.00
2019-05-14T08:47:44.883Z,72928.00
2019-05-14T08:48:44.885Z,72512.00
2019-05-14T08:49:46.491Z,70880.00
2019-05-14T08:50:47.965Z,70880.00
2019-05-14T08:51:44.868Z,68704.00
2019-05-14T08:52:44.835Z,67456.00
2019-05-14T08:53:44.826Z,70592.00
2019-05-14T08:54:44.805Z,72096.00
2019-05-14T08:55:44.820Z,70784.00
2019-05-14T08:56:44.789Z,71808.00
2019-05-14T08:57:44.911Z,74176.00
2019-05-14T08:58:44.767Z,64736.00
2019-05-14T08:59:44.760Z,75328.00
2019-05-14T09:00:44.766Z,69440.00
2019-05-14T09:01:58.740Z,37664.00
2019-05-14T09:02:45.715Z,50752.00
2019-05-14T09:03:44.709Z,44672.00
2019-05-14T09:04:44.723Z,70816.00
2019-05-14T09:05:44.738Z,70880.00
2019-05-14T09:06:44.710Z,76544.00
2019-05-14T09:07:44.657Z,80704.00
2019-05-14T09:08:44.657Z,81728.00
2019-05-14T09:09:44.678Z,75712.00
2019-05-14T09:10:44.639Z,74560.00
2019-05-14T09:11:46.385Z,67424.00
2019-05-14T09:12:45.668Z,80352.00
2019-05-14T09:13:44.598Z,79360.00
2019-05-14T09:14:44.600Z,81120.00
2019-05-14T09:15:44.583Z,81632.00
2019-05-14T09:16:47.737Z,81952.00
2019-05-14T09:17:48.128Z,84064.00
2019-05-14T09:18:44.561Z,83712.00
2019-05-14T09:20:01.164Z,84352.00
2019-05-14T09:20:45.973Z,84416.00
2019-05-14T09:21:44.554Z,82304.00
2019-05-14T09:22:44.511Z,84672.00
2019-05-14T09:23:44.503Z,76384.00
2019-05-14T09:24:44.504Z,88960.00
2019-05-14T09:25:48.330Z,88192.00
2019-05-14T09:26:45.481Z,88032.00
2019-05-14T09:27:44.479Z,85856.00
2019-05-14T09:28:44.450Z,88512.00
2019-05-14T09:29:44.443Z,88192.00
2019-05-14T09:30:44.419Z,17920.00
2019-05-14T09:31:44.439Z,82080.00
2019-05-14T09:32:44.410Z,9632.00
2019-05-14T09:33:44.439Z,84384.00
2019-05-14T09:34:44.393Z,82336.00
2019-05-14T09:35:44.397Z,83808.00
2019-05-14T09:36:44.401Z,84608.00
2019-05-14T09:37:44.349Z,87904.00
2019-05-14T09:38:44.394Z,92256.00
2019-05-14T09:39:44.332Z,95040.00
2019-05-14T09:40:44.350Z,98592.00
2019-05-14T09:41:44.329Z,96352.00
2019-05-14T09:42:44.317Z,94240.00
2019-05-14T09:43:44.291Z,92992.00
2019-05-14T09:44:44.284Z,98368.00
2019-05-14T09:45:44.282Z,94240.00
2019-05-14T09:46:44.310Z,92000.00
2019-05-14T09:47:47.531Z,93792.00
2019-05-14T09:48:45.245Z,18368.00
2019-05-14T09:49:44.240Z,42848.00
2019-05-14T09:50:44.222Z,37920.00
2019-05-14T09:51:44.238Z,14276.00
2019-05-14T09:52:44.230Z,97376.00
2019-05-14T09:53:44.215Z,96416.00
2019-05-14T09:54:44.270Z,100544.00
2019-05-14T09:55:44.172Z,19680.00
2019-05-14T09:56:44.189Z,17248.00
2019-05-14T09:57:44.163Z,16072.00
2019-05-14T09:58:44.155Z,76768.00
2019-05-14T09:59:44.149Z,97920.00
2019-05-14T10:00:44.147Z,79872.00
2019-05-14T10:01:44.114Z,42624.00
2019-05-14T10:02:44.138Z,49408.00
2019-05-14T10:03:44.089Z,20224.00
2019-05-14T10:04:44.075Z,20800.00
2019-05-14T10:05:44.076Z,15968.00
2019-05-14T10:06:44.058Z,18240.00
2019-05-14T10:07:44.044Z,24128.00
2019-05-14T10:08:44.054Z,21568.00
2019-05-14T10:09:44.066Z,21280.00
2019-05-14T10:10:44.015Z,21888.00
2019-05-14T10:11:44.039Z,20352.00
2019-05-14T10:12:52.482Z,22240.00
2019-05-14T10:13:45.014Z,16648.00
2019-05-14T10:14:43.970Z,18112.00
2019-05-14T10:15:44.027Z,18880.00
2019-05-14T10:16:43.954Z,19232.00
2019-05-14T10:17:43.970Z,21920.00
2019-05-14T10:18:43.925Z,24032.00
2019-05-14T10:19:43.931Z,24384.00
2019-05-14T10:20:46.020Z,21920.00
2019-05-14T10:21:43.897Z,21184.00
2019-05-14T10:22:43.906Z,20992.00
2019-05-14T10:23:43.870Z,21280.00
2019-05-14T10:24:43.869Z,20672.00
2019-05-14T10:25:43.886Z,19104.00
2019-05-14T10:26:43.866Z,17472.00
2019-05-14T10:27:43.826Z,16672.00
2019-05-14T10:28:43.835Z,16832.00
2019-05-14T10:29:43.818Z,19008.00
2019-05-14T10:30:43.812Z,21760.00
2019-05-14T10:31:43.801Z,24320.00
2019-05-14T10:32:43.842Z,25312.00
2019-05-14T10:33:43.784Z,25984.00
2019-05-14T10:34:43.759Z,27424.00
2019-05-14T10:35:43.817Z,28128.00
2019-05-14T10:36:43.737Z,28160.00
2019-05-14T10:37:43.755Z,28160.00
2019-05-14T10:38:43.756Z,27904.00
2019-05-14T10:39:43.773Z,27744.00
2019-05-14T10:40:43.731Z,26048.00
2019-05-14T10:41:43.698Z,24928.00
2019-05-14T10:42:43.679Z,24608.00
2019-05-14T10:43:43.671Z,26016.00
2019-05-14T10:44:43.716Z,18976.00
2019-05-14T10:45:43.638Z,21216.00
2019-05-14T10:46:43.659Z,32608.00
2019-05-14T10:47:43.624Z,28640.00
2019-05-14T10:48:43.617Z,19136.00
2019-05-14T10:49:43.590Z,18016.00
2019-05-14T10:50:56.077Z,17984.00
2019-05-14T10:51:44.578Z,63360.00
2019-05-14T10:52:43.576Z,114240.00
2019-05-14T10:53:43.585Z,109408.00
2019-05-14T10:54:55.441Z,108192.00
2019-05-14T10:55:44.518Z,107616.00
2019-05-14T10:56:43.533Z,107552.00
2019-05-14T10:57:43.528Z,110048.00
2019-05-14T10:58:43.520Z,108352.00
2019-05-14T10:59:43.494Z,110176.00
2019-05-14T11:00:43.502Z,109280.00
2019-05-14T11:01:43.489Z,108736.00
2019-05-14T11:02:43.464Z,108288.00
2019-05-14T11:03:43.444Z,108608.00
2019-05-14T11:04:43.457Z,105824.00
2019-05-14T11:05:43.490Z,105824.00
2019-05-14T11:06:43.423Z,110528.00
2019-05-14T11:07:43.410Z,108960.00
2019-05-14T11:08:43.404Z,26464.00
2019-05-14T11:09:43.381Z,22816.00
2019-05-14T11:10:43.385Z,103776.00
2019-05-14T11:11:43.392Z,118848.00
2019-05-14T11:12:43.353Z,25376.00
2019-05-14T11:13:43.362Z,23840.00
2019-05-14T11:14:43.333Z,27456.00
2019-05-14T11:15:43.325Z,27552.00
2019-05-14T11:16:43.349Z,60352.00
2019-05-14T11:17:43.311Z,118496.00
2019-05-14T11:18:43.322Z,49024.00
2019-05-14T11:19:43.304Z,24224.00
2019-05-14T11:20:43.304Z,23424.00
2019-05-14T11:21:43.252Z,24416.00
2019-05-14T11:22:43.295Z,26752.00
2019-05-14T11:23:43.266Z,72576.00
2019-05-14T11:24:43.248Z,57792.00
2019-05-14T11:25:43.229Z,64768.00
2019-05-14T11:26:43.216Z,111680.00
2019-05-14T11:27:43.202Z,36032.00
2019-05-14T11:28:43.216Z,123168.00
2019-05-14T11:29:43.185Z,31296.00
2019-05-14T11:30:43.198Z,30528.00
2019-05-14T11:31:43.167Z,28928.00
2019-05-14T11:32:43.149Z,31904.00
2019-05-14T11:33:43.177Z,44096.00
2019-05-14T11:34:43.130Z,37088.00
2019-05-14T11:35:43.115Z,29728.00
2019-05-14T11:36:43.102Z,87456.00
2019-05-14T11:37:43.095Z,118080.00
2019-05-14T11:38:43.086Z,35392.00
2019-05-14T11:39:43.112Z,27104.00
2019-05-14T11:40:43.077Z,119008.00
2019-05-14T11:41:43.057Z,61696.00
2019-05-14T11:42:43.036Z,46496.00
2019-05-14T11:43:43.047Z,34368.00
2019-05-14T11:44:43.044Z,111168.00
2019-05-14T11:45:43.014Z,92256.00
2019-05-14T11:46:51.401Z,92704.00
2019-05-14T11:47:43.996Z,27520.00
2019-05-14T11:48:42.986Z,27680.00
2019-05-14T11:49:42.957Z,112736.00
2019-05-14T11:50:42.979Z,25280.00
2019-05-14T11:52:43.945Z,22848.00
2019-05-14T11:53:42.955Z,22144.00
2019-05-14T11:54:42.907Z,22432.00
2019-05-14T11:55:42.915Z,55008.00
2019-05-14T11:56:42.907Z,53056.00
2019-05-14T11:57:42.887Z,50944.00
2019-05-14T11:58:42.877Z,38752.00
2019-05-14T11:59:42.895Z,27936.00
2019-05-14T12:00:42.859Z,45888.00
2019-05-14T12:01:42.928Z,27616.00
2019-05-14T12:02:42.848Z,66560.00
2019-05-14T12:03:42.859Z,22240.00
2019-05-14T12:04:42.836Z,35808.00
2019-05-14T12:05:42.811Z,59072.00
2019-05-14T12:06:42.779Z,36576.00
2019-05-14T12:07:42.792Z,107488.00
2019-05-14T12:08:42.776Z,106432.00
2019-05-14T12:09:42.768Z,109376.00
2019-05-14T12:10:42.765Z,108384.00
2019-05-14T12:11:42.749Z,110880.00
2019-05-14T12:12:42.729Z,112480.00
2019-05-14T12:13:42.709Z,112256.00
2019-05-14T12:14:42.734Z,112384.00
2019-05-14T12:15:42.688Z,112192.00
2019-05-14T12:16:42.691Z,111872.00
2019-05-14T12:17:42.699Z,110496.00